Time;durP1;ratioP1;P1;durP2;ratioP2;P2;SDS_P1;SDS_P2;PMS_P1;PMS_P2;Temp;Humidity;BMP_temperature;BMP_pressure;BME280_temperature;BME280_humidity;BME280_pressure;Samples;Min_cycle;Max_cycle;Signal;HPM_P1;HPM_P2
2023/04/13 00:00:21;;;;;;;32.22;20.52;;;10.30;99.90;;;;;;5035959;28;20090;-71
2023/04/13 00:02:52;;;;;;;38.55;23.02;;;10.20;99.90;;;;;;5035984;28;20029;-72
2023/04/13 00:05:18;;;;;;;36.40;22.42;;;10.20;99.90;;;;;;5037594;28;20033;-72
2023/04/13 00:07:44;;;;;;;32.75;22.27;;;10.20;99.90;;;;;;5032783;28;20032;-73
2023/04/13 00:10:10;;;;;;;36.40;22.33;;;10.30;99.90;;;;;;5030352;28;20037;-73
2023/04/13 00:12:37;;;;;;;36.05;23.85;;;10.20;99.90;;;;;;5031347;28;20072;-72
2023/04/13 00:15:04;;;;;;;35.35;23.65;;;10.20;99.90;;;;;;5030594;28;20032;-72
2023/04/13 00:17:32;;;;;;;34.92;24.05;;;10.20;99.90;;;;;;5031357;28;20037;-72
2023/04/13 00:20:07;;;;;;;36.35;24.30;;;10.10;99.90;;;;;;5032226;28;20029;-72
2023/04/13 00:22:32;;;;;;;39.05;24.73;;;10.20;99.90;;;;;;5040977;28;20038;-72
2023/04/13 00:24:58;;;;;;;37.13;25.17;;;10.20;99.90;;;;;;5030077;28;20537;-72
2023/04/13 00:27:29;;;;;;;40.05;27.10;;;10.20;99.90;;;;;;5032056;28;20029;-72
2023/04/13 00:29:55;;;;;;;37.60;24.88;;;10.20;99.90;;;;;;5035879;28;20044;-72
2023/04/13 00:32:25;;;;;;;38.97;26.23;;;10.20;99.90;;;;;;5036450;28;20112;-72
2023/04/13 00:34:51;;;;;;;38.47;24.25;;;10.30;99.90;;;;;;5034928;28;20156;-72
2023/04/13 00:37:20;;;;;;;39.58;25.65;;;10.00;99.90;;;;;;5032172;28;20131;-72
2023/04/13 00:39:46;;;;;;;43.25;25.50;;;9.90;99.90;;;;;;5038721;28;20067;-72
2023/04/13 00:42:12;;;;;;;41.55;25.98;;;9.80;99.90;;;;;;5028722;28;20073;-73
2023/04/13 00:44:38;;;;;;;40.33;25.85;;;9.90;99.90;;;;;;5042495;28;20032;-72
2023/04/13 00:47:05;;;;;;;37.90;24.13;;;9.90;99.90;;;;;;5033140;28;20037;-72
2023/04/13 00:49:33;;;;;;;37.65;23.00;;;10.00;99.90;;;;;;5036177;28;20029;-73
2023/04/13 00:52:00;;;;;;;35.42;22.67;;;10.10;99.90;;;;;;5029808;28;20536;-73
2023/04/13 00:54:28;;;;;;;35.78;22.92;;;10.10;99.90;;;;;;5034730;28;20025;-72
2023/04/13 00:56:54;;;;;;;33.05;21.23;;;10.00;99.90;;;;;;5030968;28;20037;-72
2023/04/13 00:59:21;;;;;;;31.40;21.58;;;10.10;99.90;;;;;;5029672;28;20075;-72
2023/04/13 01:01:49;;;;;;;34.38;21.92;;;10.10;99.90;;;;;;5032274;28;20525;-72
2023/04/13 01:04:18;;;;;;;36.30;22.55;;;10.10;99.90;;;;;;5035525;28;20117;-73
2023/04/13 01:06:51;;;;;;;33.47;21.30;;;10.00;99.90;;;;;;5029788;28;20037;-72
2023/04/13 01:09:33;;;;;;;36.45;24.33;;;10.00;99.90;;;;;;5042619;28;20055;-72
2023/04/13 01:12:16;;;;;;;37.67;21.60;;;10.10;99.90;;;;;;5040646;28;20379;-72
2023/04/13 01:14:57;;;;;;;34.45;21.52;;;10.10;99.90;;;;;;5034140;28;20022;-72
2023/04/13 01:17:27;;;;;;;39.33;23.33;;;10.00;99.90;;;;;;5039019;28;20126;-72
2023/04/13 01:20:00;;;;;;;30.23;21.02;;;10.00;99.90;;;;;;5031643;28;20033;-73
2023/04/13 01:22:30;;;;;;;33.63;20.95;;;9.90;99.90;;;;;;5031850;28;20028;-72
2023/04/13 01:25:05;;;;;;;35.58;21.98;;;10.00;99.90;;;;;;5035136;28;20060;-72
2023/04/13 01:27:46;;;;;;;39.90;23.48;;;9.90;99.90;;;;;;5038254;28;20060;-73
2023/04/13 01:30:20;;;;;;;32.88;21.58;;;9.90;99.90;;;;;;5032487;28;20128;-73
2023/04/13 01:32:51;;;;;;;38.80;23.00;;;9.90;99.90;;;;;;5031275;28;20033;-73
2023/04/13 01:35:18;;;;;;;35.25;22.10;;;9.90;99.90;;;;;;5037953;28;20450;-72
2023/04/13 01:37:45;;;;;;;31.40;20.73;;;9.90;99.90;;;;;;5038271;28;20029;-72
2023/04/13 01:40:12;;;;;;;32.72;19.70;;;9.90;99.90;;;;;;5032585;28;20029;-72
2023/04/13 01:42:39;;;;;;;31.88;20.98;;;9.90;99.90;;;;;;5031307;28;20103;-72
2023/04/13 01:45:16;;;;;;;34.00;22.83;;;10.00;99.90;;;;;;5030259;28;20410;-72
2023/04/13 01:48:09;;;;;;;40.83;26.23;;;10.00;99.90;;;;;;5038610;28;20490;-72
2023/04/13 01:50:39;;;;;;;37.50;23.80;;;10.00;99.90;;;;;;5042245;28;20095;-72
2023/04/13 01:53:10;;;;;;;34.72;22.08;;;10.10;99.90;;;;;;5039847;28;20037;-73
2023/04/13 01:55:38;;;;;;;39.00;24.83;;;10.00;99.90;;;;;;5034388;28;20027;-72
2023/04/13 01:58:05;;;;;;;39.97;26.88;;;10.00;99.90;;;;;;5030115;28;26133;-72
2023/04/13 02:00:35;;;;;;;45.35;26.83;;;10.10;99.90;;;;;;5032836;28;20064;-72
2023/04/13 02:03:07;;;;;;;45.10;28.88;;;10.20;99.90;;;;;;5031413;28;20036;-73
2023/04/13 02:05:35;;;;;;;41.47;26.25;;;10.10;99.90;;;;;;5031575;28;20689;-72
2023/04/13 02:08:04;;;;;;;40.38;24.75;;;10.10;99.90;;;;;;5035856;28;20471;-73
2023/04/13 02:10:30;;;;;;;41.17;26.77;;;10.10;99.90;;;;;;5036052;28;20120;-72
2023/04/13 02:12:56;;;;;;;34.58;23.02;;;10.20;99.90;;;;;;5029536;28;20037;-73
2023/04/13 02:15:21;;;;;;;40.42;25.40;;;10.10;99.90;;;;;;5029802;28;20524;-73
2023/04/13 02:17:47;;;;;;;38.42;24.10;;;10.20;99.90;;;;;;5043175;28;20029;-72
2023/04/13 02:20:13;;;;;;;34.60;23.05;;;10.20;99.90;;;;;;5028606;28;20079;-73
2023/04/13 02:22:40;;;;;;;35.72;24.17;;;10.00;99.90;;;;;;5030900;28;20029;-72
2023/04/13 02:25:14;;;;;;;33.80;20.80;;;10.00;99.90;;;;;;5043173;28;20413;-72
2023/04/13 02:27:40;;;;;;;31.27;20.80;;;10.00;99.90;;;;;;5033284;28;20392;-73
2023/04/13 02:30:08;;;;;;;30.58;19.75;;;10.00;99.90;;;;;;5034812;28;20045;-73
2023/04/13 02:32:40;;;;;;;30.30;20.33;;;10.10;99.90;;;;;;5034503;28;20139;-73
2023/04/13 02:35:10;;;;;;;34.22;21.35;;;10.10;99.90;;;;;;5036386;28;20091;-73
2023/04/13 02:37:38;;;;;;;36.67;23.27;;;10.20;99.90;;;;;;5029666;28;20108;-73
2023/04/13 02:40:07;;;;;;;33.67;21.80;;;10.10;99.90;;;;;;5035920;28;20029;-72
2023/04/13 02:42:33;;;;;;;34.33;22.10;;;10.10;99.90;;;;;;5036788;28;20397;-72
2023/04/13 02:44:59;;;;;;;31.45;21.10;;;10.20;99.90;;;;;;5030379;28;20063;-73
2023/04/13 02:47:25;;;;;;;27.88;19.52;;;10.20;99.90;;;;;;5032555;28;20041;-72
2023/04/13 02:49:51;;;;;;;30.20;20.25;;;10.10;99.90;;;;;;5029981;28;20036;-73
2023/04/13 02:52:16;;;;;;;26.20;18.45;;;10.00;99.90;;;;;;5033809;28;20249;-72
2023/04/13 02:54:43;;;;;;;27.40;19.08;;;9.90;99.90;;;;;;5031943;28;20129;-72
2023/04/13 02:57:12;;;;;;;24.27;17.58;;;9.90;99.90;;;;;;5029877;28;20025;-73
2023/04/13 02:59:39;;;;;;;29.85;20.10;;;9.90;99.90;;;;;;5030716;28;20029;-72
2023/04/13 03:02:05;;;;;;;32.20;19.42;;;10.00;99.90;;;;;;5032945;28;20025;-72
2023/04/13 03:04:31;;;;;;;27.23;18.52;;;10.00;99.90;;;;;;5023277;28;20060;-72
2023/04/13 03:06:57;;;;;;;29.92;21.23;;;10.00;99.90;;;;;;5025698;28;20025;-72
2023/04/13 03:09:24;;;;;;;30.52;19.27;;;10.00;99.90;;;;;;5025631;28;20112;-72
2023/04/13 03:11:50;;;;;;;28.63;19.17;;;9.90;99.90;;;;;;5026289;28;20573;-72
2023/04/13 03:14:21;;;;;;;24.23;17.20;;;9.90;99.90;;;;;;5032563;28;20630;-73
2023/04/13 03:16:48;;;;;;;29.15;18.15;;;9.90;99.90;;;;;;5022975;28;20030;-72
2023/04/13 03:19:15;;;;;;;24.05;17.08;;;10.00;99.90;;;;;;5023539;28;20090;-72
2023/04/13 03:21:43;;;;;;;28.13;18.25;;;9.90;99.90;;;;;;5024385;28;20049;-72
2023/04/13 03:24:10;;;;;;;23.77;16.38;;;9.90;99.90;;;;;;5028828;28;20027;-72
2023/04/13 03:26:36;;;;;;;25.25;17.45;;;9.80;99.90;;;;;;5035061;28;20037;-72
2023/04/13 03:29:02;;;;;;;28.23;17.60;;;9.80;99.90;;;;;;5034776;28;20035;-72
2023/04/13 03:31:29;;;;;;;23.48;15.85;;;9.90;99.90;;;;;;5029349;28;20115;-71
2023/04/13 03:33:56;;;;;;;24.30;14.80;;;9.90;99.90;;;;;;5027426;28;20509;-72
2023/04/13 03:36:22;;;;;;;20.15;14.27;;;9.70;99.90;;;;;;5028053;28;20068;-72
2023/04/13 03:38:48;;;;;;;20.73;14.25;;;9.80;99.90;;;;;;5029622;28;20372;-72
2023/04/13 03:41:14;;;;;;;23.60;13.73;;;9.70;99.90;;;;;;5031030;28;20036;-72
2023/04/13 03:43:40;;;;;;;21.50;13.55;;;9.70;99.90;;;;;;5032659;28;20032;-72
2023/04/13 03:46:06;;;;;;;21.40;14.25;;;9.70;99.90;;;;;;5032489;28;20033;-72
2023/04/13 03:48:32;;;;;;;20.42;12.18;;;9.60;99.90;;;;;;5028107;28;20048;-72
2023/04/13 03:50:58;;;;;;;19.65;13.95;;;9.60;99.90;;;;;;5029614;28;20123;-72
2023/04/13 03:53:25;;;;;;;21.00;14.15;;;9.60;99.90;;;;;;5028985;28;20064;-71
2023/04/13 03:55:51;;;;;;;18.00;12.85;;;9.70;99.90;;;;;;5029108;28;20029;-72
2023/04/13 03:58:17;;;;;;;22.40;14.48;;;9.70;99.90;;;;;;5037913;28;20063;-71
2023/04/13 04:00:43;;;;;;;23.52;16.65;;;9.70;99.90;;;;;;5026854;28;20029;-71
2023/04/13 04:03:09;;;;;;;24.00;15.00;;;9.70;99.90;;;;;;5027283;28;20025;-72
2023/04/13 04:05:38;;;;;;;26.10;15.40;;;9.80;99.90;;;;;;5030765;28;20081;-72
2023/04/13 04:08:04;;;;;;;25.75;15.70;;;9.70;99.90;;;;;;5029796;28;20021;-72
2023/04/13 04:10:30;;;;;;;20.58;13.88;;;9.60;99.90;;;;;;5026436;28;20142;-72
2023/04/13 04:12:56;;;;;;;23.55;15.48;;;9.60;99.90;;;;;;5025610;28;20046;-73
2023/04/13 04:15:22;;;;;;;26.13;15.40;;;9.60;99.90;;;;;;5025574;28;20406;-72
2023/04/13 04:17:48;;;;;;;26.20;16.90;;;9.60;99.90;;;;;;5024456;28;20037;-72
2023/04/13 04:20:14;;;;;;;23.73;16.13;;;9.60;99.90;;;;;;5036964;28;20028;-72
2023/04/13 04:22:40;;;;;;;21.95;13.85;;;9.60;99.90;;;;;;5033521;28;20045;-72
2023/04/13 04:25:07;;;;;;;23.42;15.98;;;9.50;99.90;;;;;;5029512;28;20646;-71
2023/04/13 04:27:37;;;;;;;23.80;15.45;;;9.60;99.90;;;;;;5025059;28;26546;-72
2023/04/13 04:30:04;;;;;;;19.65;13.63;;;9.60;99.90;;;;;;5025307;28;20045;-72
2023/04/13 04:32:32;;;;;;;19.98;14.38;;;9.60;99.90;;;;;;5023194;28;20037;-71
2023/04/13 04:34:59;;;;;;;23.15;14.45;;;9.50;99.90;;;;;;5030357;28;20032;-72
2023/04/13 04:37:24;;;;;;;22.17;13.75;;;9.70;99.90;;;;;;5027475;28;20042;-72
2023/04/13 04:39:52;;;;;;;22.13;14.85;;;9.60;99.90;;;;;;5032739;28;20036;-72
2023/04/13 04:42:18;;;;;;;22.45;15.27;;;9.50;99.90;;;;;;5031920;28;20021;-72
2023/04/13 04:44:46;;;;;;;23.05;14.77;;;9.60;99.90;;;;;;5030227;28;20032;-72
2023/04/13 04:47:12;;;;;;;20.65;14.38;;;9.60;99.90;;;;;;5028659;28;20029;-72
2023/04/13 04:49:38;;;;;;;22.85;15.05;;;9.60;99.90;;;;;;5028120;28;20075;-72
2023/04/13 04:52:04;;;;;;;21.25;14.27;;;9.60;99.90;;;;;;5023961;28;20129;-72
2023/04/13 04:54:30;;;;;;;21.85;13.18;;;9.60;99.90;;;;;;5030681;28;20111;-73
2023/04/13 04:56:56;;;;;;;21.13;13.63;;;9.50;99.90;;;;;;5027398;28;20041;-72
2023/04/13 04:59:22;;;;;;;20.00;12.73;;;9.40;99.90;;;;;;5025533;28;20025;-72
2023/04/13 05:01:48;;;;;;;15.55;10.23;;;9.40;99.90;;;;;;5024073;28;20087;-72
2023/04/13 05:04:14;;;;;;;12.82;9.07;;;9.30;99.90;;;;;;5027599;28;20029;-72
2023/04/13 05:06:40;;;;;;;13.10;7.63;;;9.20;99.90;;;;;;5023863;28;20557;-72
2023/04/13 05:09:08;;;;;;;12.07;8.15;;;9.10;99.90;;;;;;5035119;28;20025;-72
2023/04/13 05:11:35;;;;;;;12.27;8.02;;;9.00;99.90;;;;;;5028439;28;20111;-72
2023/04/13 05:14:01;;;;;;;9.23;5.28;;;9.10;99.90;;;;;;5029861;28;20029;-73
2023/04/13 05:16:29;;;;;;;7.75;4.95;;;9.00;99.90;;;;;;5022582;28;20029;-72
2023/04/13 05:18:55;;;;;;;7.20;3.95;;;8.90;99.90;;;;;;5028925;28;20090;-72
2023/04/13 05:21:21;;;;;;;8.52;4.18;;;8.80;99.90;;;;;;5028636;28;20155;-72
2023/04/13 05:23:47;;;;;;;6.00;3.70;;;8.90;99.90;;;;;;5022810;28;20075;-72
2023/04/13 05:26:14;;;;;;;6.20;3.42;;;8.90;99.90;;;;;;5026990;28;20486;-71
2023/04/13 05:28:39;;;;;;;6.47;3.78;;;8.80;99.90;;;;;;5033886;28;20356;-71
2023/04/13 05:31:07;;;;;;;5.80;3.35;;;8.70;99.90;;;;;;5036218;28;20055;-71
2023/04/13 05:33:33;;;;;;;6.22;3.50;;;8.90;99.90;;;;;;5030720;28;20040;-71
2023/04/13 05:36:00;;;;;;;5.57;3.30;;;8.80;99.90;;;;;;5022184;28;20034;-70
2023/04/13 05:38:25;;;;;;;8.77;6.90;;;8.80;99.90;;;;;;5022911;28;20043;-71
2023/04/13 05:40:52;;;;;;;18.02;11.48;;;8.80;99.90;;;;;;5026751;28;20524;-71
2023/04/13 05:43:19;;;;;;;6.13;3.63;;;8.80;99.90;;;;;;5027509;28;20059;-71
2023/04/13 05:45:44;;;;;;;22.33;12.88;;;8.70;99.90;;;;;;5033307;28;20367;-72
2023/04/13 05:48:10;;;;;;;58.78;30.55;;;8.80;99.90;;;;;;5023056;28;20047;-71
2023/04/13 05:50:36;;;;;;;9.70;4.63;;;8.90;99.90;;;;;;5029564;28;20041;-70
2023/04/13 05:53:04;;;;;;;6.45;2.92;;;8.80;99.90;;;;;;5022672;28;20049;-75
2023/04/13 05:55:31;;;;;;;5.50;2.88;;;8.80;99.90;;;;;;5035161;28;20083;-73
2023/04/13 05:57:57;;;;;;;5.05;2.95;;;8.60;99.90;;;;;;5031395;28;20064;-72
2023/04/13 06:00:23;;;;;;;6.15;4.05;;;8.80;99.90;;;;;;5027166;28;20528;-73
2023/04/13 06:02:49;;;;;;;4.72;2.47;;;9.00;99.90;;;;;;5028781;28;20036;-72
2023/04/13 06:05:18;;;;;;;4.13;2.20;;;8.80;99.90;;;;;;5030577;28;20028;-73
2023/04/13 06:07:45;;;;;;;6.38;2.67;;;8.80;99.90;;;;;;5033991;28;20563;-73
2023/04/13 06:10:14;;;;;;;5.32;3.28;;;8.90;99.90;;;;;;5028789;28;20033;-73
2023/04/13 06:12:40;;;;;;;7.10;2.78;;;8.90;99.90;;;;;;5035864;28;20045;-73
2023/04/13 06:15:06;;;;;;;6.70;3.00;;;8.70;99.90;;;;;;5026773;28;20033;-73
2023/04/13 06:17:32;;;;;;;7.38;2.85;;;8.70;99.90;;;;;;5025887;28;20040;-74
2023/04/13 06:19:58;;;;;;;4.38;2.38;;;8.70;99.90;;;;;;5023839;28;20033;-74
2023/04/13 06:22:24;;;;;;;5.78;2.83;;;8.70;99.90;;;;;;5033926;28;20579;-74
2023/04/13 06:24:50;;;;;;;5.03;2.65;;;8.70;99.90;;;;;;5030766;28;20033;-73
2023/04/13 06:27:17;;;;;;;6.18;2.78;;;8.70;99.90;;;;;;5023131;28;20191;-73
2023/04/13 06:29:43;;;;;;;6.50;3.03;;;8.80;99.90;;;;;;5029471;28;20111;-73
2023/04/13 06:32:09;;;;;;;5.63;2.97;;;9.00;99.90;;;;;;5031614;28;20079;-73
2023/04/13 06:34:34;;;;;;;4.68;2.55;;;9.10;99.90;;;;;;5030354;28;20129;-73
2023/04/13 06:37:01;;;;;;;4.60;2.22;;;9.20;99.90;;;;;;5031571;28;20035;-73
2023/04/13 06:39:27;;;;;;;5.40;2.67;;;9.00;99.90;;;;;;5028006;28;20120;-73
2023/04/13 06:41:53;;;;;;;4.13;2.17;;;8.90;99.90;;;;;;5031684;28;20021;-73
2023/04/13 06:44:19;;;;;;;3.78;1.73;;;9.00;99.90;;;;;;5034140;28;20037;-74
2023/04/13 06:46:45;;;;;;;2.67;1.48;;;8.90;99.90;;;;;;5021572;28;20096;-73
2023/04/13 06:49:12;;;;;;;2.75;1.10;;;8.90;99.90;;;;;;5021471;28;20025;-74
2023/04/13 06:51:37;;;;;;;1.55;0.95;;;9.00;99.90;;;;;;5031030;28;20028;-74
2023/04/13 06:54:03;;;;;;;2.35;1.10;;;9.00;99.90;;;;;;5029814;28;20563;-73
2023/04/13 06:56:29;;;;;;;2.58;1.25;;;9.10;99.90;;;;;;5021243;28;20041;-73
2023/04/13 06:58:59;;;;;;;2.90;1.15;;;9.00;99.90;;;;;;5029584;28;20482;-73
2023/04/13 07:01:26;;;;;;;2.80;1.40;;;9.00;99.90;;;;;;5025194;28;20166;-73
2023/04/13 07:03:51;;;;;;;2.58;0.90;;;8.90;99.90;;;;;;5027437;28;20017;-73
2023/04/13 07:06:17;;;;;;;2.80;1.35;;;8.90;99.90;;;;;;5023567;28;20368;-73
2023/04/13 07:08:43;;;;;;;1.85;0.90;;;9.00;99.90;;;;;;5029497;28;20065;-73
2023/04/13 07:11:09;;;;;;;3.13;0.95;;;9.00;99.90;;;;;;5035638;28;20079;-73
2023/04/13 07:13:34;;;;;;;2.50;1.13;;;9.00;99.90;;;;;;5029987;28;20095;-73
2023/04/13 07:16:00;;;;;;;3.00;1.63;;;9.10;99.90;;;;;;5021470;28;20033;-73
2023/04/13 07:18:26;;;;;;;3.08;0.95;;;9.10;99.90;;;;;;5029151;28;20808;-73
2023/04/13 07:20:51;;;;;;;2.42;1.30;;;9.20;99.90;;;;;;5021467;28;20052;-73
2023/04/13 07:23:17;;;;;;;2.63;1.02;;;9.40;99.90;;;;;;5029125;28;20021;-73
2023/04/13 07:25:43;;;;;;;2.83;1.13;;;9.50;99.90;;;;;;5021992;28;20091;-72
2023/04/13 07:28:09;;;;;;;2.42;1.42;;;9.50;99.90;;;;;;5029530;28;21002;-72
2023/04/13 07:30:34;;;;;;;2.63;1.08;;;9.70;99.90;;;;;;5020501;28;20049;-72
2023/04/13 07:33:00;;;;;;;3.38;1.33;;;9.60;99.90;;;;;;5027230;28;20040;-73
2023/04/13 07:35:27;;;;;;;1.25;0.90;;;9.50;99.90;;;;;;5032669;28;20021;-73
2023/04/13 07:37:52;;;;;;;3.15;1.60;;;9.60;99.90;;;;;;5024656;28;20602;-73
2023/04/13 07:40:18;;;;;;;2.47;0.70;;;9.30;99.90;;;;;;5029301;28;20032;-71
2023/04/13 07:42:44;;;;;;;2.20;0.95;;;9.40;99.90;;;;;;5032623;28;20423;-71
2023/04/13 07:45:10;;;;;;;1.60;0.80;;;9.30;99.90;;;;;;5042095;28;20090;-71
2023/04/13 07:47:36;;;;;;;3.40;0.95;;;9.40;99.90;;;;;;5040490;28;20029;-71
2023/04/13 07:50:04;;;;;;;1.35;0.60;;;9.50;99.90;;;;;;5031926;28;20032;-71
2023/04/13 07:52:30;;;;;;;3.10;0.70;;;9.20;99.90;;;;;;5020724;28;20030;-71
2023/04/13 07:54:56;;;;;;;2.10;0.73;;;9.20;99.90;;;;;;5020077;28;20033;-70
2023/04/13 07:57:21;;;;;;;1.42;0.77;;;9.20;99.90;;;;;;5021349;28;20152;-72
2023/04/13 07:59:47;;;;;;;3.42;1.20;;;9.20;99.90;;;;;;5033726;28;20080;-71
2023/04/13 08:02:13;;;;;;;2.33;0.95;;;9.40;99.90;;;;;;5031102;28;20033;-72
2023/04/13 08:04:39;;;;;;;2.92;0.88;;;9.30;99.90;;;;;;5029117;28;20057;-71
2023/04/13 08:07:06;;;;;;;2.58;0.93;;;9.30;99.90;;;;;;5026615;28;20022;-71
2023/04/13 08:09:37;;;;;;;6.00;0.98;;;9.20;99.90;;;;;;5038194;28;20374;-72
2023/04/13 08:12:03;;;;;;;1.52;0.60;;;9.20;99.90;;;;;;5026200;28;20614;-71
2023/04/13 08:14:29;;;;;;;1.25;0.70;;;9.20;99.90;;;;;;5032616;28;20037;-72
2023/04/13 08:16:54;;;;;;;3.15;0.60;;;9.40;99.90;;;;;;5030647;28;20083;-71
2023/04/13 08:19:20;;;;;;;3.40;0.90;;;9.20;99.90;;;;;;5032245;28;20035;-72
2023/04/13 08:21:46;;;;;;;2.22;1.27;;;9.40;99.90;;;;;;5040311;28;20110;-72
2023/04/13 08:24:12;;;;;;;2.03;0.73;;;9.50;99.90;;;;;;5041394;28;20477;-72
2023/04/13 08:26:38;;;;;;;1.80;0.47;;;9.70;99.90;;;;;;5045409;28;20472;-72
2023/04/13 08:29:03;;;;;;;2.28;0.90;;;9.80;99.90;;;;;;5035419;28;20036;-73
2023/04/13 08:31:31;;;;;;;1.33;0.65;;;10.00;99.90;;;;;;5033375;28;20060;-72
2023/04/13 08:33:57;;;;;;;2.03;0.75;;;9.90;99.90;;;;;;5032782;28;20514;-72
2023/04/13 08:36:22;;;;;;;1.35;0.50;;;10.20;99.90;;;;;;5023324;28;20052;-73
2023/04/13 08:38:48;;;;;;;1.30;0.40;;;10.00;99.90;;;;;;5040879;28;20091;-71
2023/04/13 08:41:16;;;;;;;0.82;0.30;;;10.00;99.90;;;;;;5042894;28;20032;-72
2023/04/13 08:43:42;;;;;;;0.88;0.38;;;9.90;99.90;;;;;;5034650;28;20033;-71
2023/04/13 08:46:07;;;;;;;2.28;0.30;;;10.00;99.90;;;;;;5029598;28;20032;-71
2023/04/13 08:48:38;;;;;;;0.80;0.40;;;9.80;99.90;;;;;;5027450;28;20052;-71
2023/04/13 08:51:04;;;;;;;2.45;0.60;;;9.70;99.90;;;;;;5035266;28;20029;-72
2023/04/13 08:53:30;;;;;;;4.15;0.60;;;9.60;99.90;;;;;;5029517;28;20041;-72
2023/04/13 08:56:01;;;;;;;6.32;4.40;;;9.50;99.90;;;;;;5029939;28;20029;-72
2023/04/13 08:58:32;;;;;;;8.13;3.97;;;9.50;99.90;;;;;;5037626;28;20029;-72
2023/04/13 09:00:58;;;;;;;18.02;11.27;;;9.40;99.90;;;;;;5029188;28;20124;-73
2023/04/13 09:03:27;;;;;;;5.28;2.50;;;9.50;99.90;;;;;;5024440;28;20120;-72
2023/04/13 09:06:00;;;;;;;12.25;6.50;;;9.50;99.90;;;;;;5030534;28;20036;-72
2023/04/13 09:08:33;;;;;;;9.95;5.35;;;9.30;99.90;;;;;;5022095;28;20055;-72
2023/04/13 09:10:59;;;;;;;1.00;0.65;;;9.40;99.90;;;;;;5039306;28;20117;-72
2023/04/13 09:13:25;;;;;;;3.85;1.67;;;9.20;99.90;;;;;;5031059;28;20120;-72
2023/04/13 09:15:51;;;;;;;3.40;0.88;;;9.50;99.90;;;;;;5032907;28;20034;-72
2023/04/13 09:18:17;;;;;;;3.15;1.23;;;9.50;99.90;;;;;;5036280;28;20033;-72
2023/04/13 09:20:54;;;;;;;6.32;3.47;;;9.40;99.90;;;;;;5036111;28;20036;-73
2023/04/13 09:23:19;;;;;;;1.48;0.60;;;9.50;99.90;;;;;;5033617;28;20025;-73
2023/04/13 09:25:45;;;;;;;2.13;0.82;;;9.50;99.90;;;;;;5030951;28;20031;-72
2023/04/13 09:28:16;;;;;;;1.15;0.30;;;9.20;99.90;;;;;;5038307;28;20028;-73
2023/04/13 09:30:42;;;;;;;1.25;0.40;;;9.20;99.90;;;;;;5040956;28;20124;-72
2023/04/13 09:33:09;;;;;;;1.73;0.60;;;9.00;99.90;;;;;;5033785;28;20055;-72
2023/04/13 09:35:36;;;;;;;1.20;0.45;;;9.10;99.90;;;;;;5024073;28;20035;-72
2023/04/13 09:38:03;;;;;;;1.65;0.73;;;9.20;99.90;;;;;;5036217;28;20467;-72
2023/04/13 09:40:30;;;;;;;1.33;0.50;;;9.00;99.90;;;;;;5028693;28;20025;-71
2023/04/13 09:43:02;;;;;;;1.05;0.50;;;9.00;99.90;;;;;;5028277;28;20029;-71
2023/04/13 09:45:33;;;;;;;1.02;0.40;;;8.90;99.90;;;;;;5038742;28;20041;-73
2023/04/13 09:48:01;;;;;;;2.17;0.90;;;9.00;99.90;;;;;;5022990;28;20583;-75
2023/04/13 09:50:27;;;;;;;3.00;0.73;;;9.20;99.90;;;;;;5022377;28;20707;-74
2023/04/13 09:53:00;;;;;;;0.55;0.20;;;9.10;99.90;;;;;;5029472;28;20098;-74
2023/04/13 09:55:26;;;;;;;2.53;0.55;;;9.00;99.90;;;;;;5031820;28;20471;-74
2023/04/13 09:57:52;;;;;;;3.15;1.58;;;9.00;99.90;;;;;;5021825;28;20029;-76
2023/04/13 10:00:22;;;;;;;2.72;0.80;;;9.30;99.90;;;;;;5023767;28;20037;-75
2023/04/13 10:02:51;;;;;;;1.60;0.70;;;9.30;99.90;;;;;;5026159;28;20618;-75
2023/04/13 10:05:18;;;;;;;2.08;0.73;;;9.10;99.90;;;;;;5035825;28;20375;-75
2023/04/13 10:07:45;;;;;;;1.63;0.85;;;9.00;99.90;;;;;;5032413;28;20074;-76
2023/04/13 10:10:11;;;;;;;10.48;6.63;;;9.10;99.90;;;;;;5025953;28;20057;-76
2023/04/13 10:12:51;;;;;;;4.35;1.08;;;9.30;99.90;;;;;;5040447;28;20601;-73
2023/04/13 10:15:57;;;;;;;1.52;0.63;;;9.20;99.90;;;;;;5039303;28;20082;-74
2023/04/13 10:18:43;;;;;;;2.88;1.10;;;9.10;99.90;;;;;;5023148;28;20037;-74
2023/04/13 10:21:10;;;;;;;2.15;1.00;;;9.20;99.90;;;;;;5032034;28;20037;-74
2023/04/13 10:23:37;;;;;;;1.48;0.88;;;8.90;99.90;;;;;;5023392;28;20037;-73
2023/04/13 10:26:05;;;;;;;1.85;1.10;;;9.00;99.90;;;;;;5029193;28;20521;-73
2023/04/13 10:28:45;;;;;;;2.45;1.23;;;9.00;99.90;;;;;;5024540;28;20037;-73
2023/04/13 10:31:10;;;;;;;1.83;1.00;;;9.00;99.90;;;;;;5023677;28;20041;-73
2023/04/13 10:33:49;;;;;;;2.70;0.80;;;8.80;99.90;;;;;;5028940;28;20050;-72
2023/04/13 10:36:16;;;;;;;3.20;1.27;;;8.80;99.90;;;;;;5023829;28;20048;-73
2023/04/13 10:38:43;;;;;;;3.45;0.90;;;9.00;99.90;;;;;;5038453;28;20024;-74
2023/04/13 10:41:09;;;;;;;2.35;1.40;;;9.00;99.90;;;;;;5044179;28;20047;-72
2023/04/13 10:43:34;;;;;;;2.20;0.75;;;9.00;99.90;;;;;;5036988;28;20522;-72
2023/04/13 10:46:15;;;;;;;1.67;0.60;;;8.70;99.90;;;;;;5029475;28;20100;-72
2023/04/13 10:48:41;;;;;;;2.15;0.60;;;8.80;99.90;;;;;;5024127;28;20033;-73
2023/04/13 10:51:07;;;;;;;5.22;0.68;;;8.60;99.90;;;;;;5035409;28;20108;-71
2023/04/13 10:53:33;;;;;;;1.27;0.50;;;8.70;99.90;;;;;;5040992;28;20824;-72
2023/04/13 10:56:00;;;;;;;1.50;0.50;;;8.60;99.90;;;;;;5037527;28;20105;-72
2023/04/13 10:58:28;;;;;;;1.35;0.60;;;8.60;99.90;;;;;;5038483;28;20067;-72
2023/04/13 11:00:54;;;;;;;0.82;0.50;;;8.40;99.90;;;;;;5043212;28;20396;-73
2023/04/13 11:03:20;;;;;;;1.10;0.25;;;8.40;99.90;;;;;;5045437;28;20035;-73
2023/04/13 11:05:56;;;;;;;0.10;0.08;;;8.40;99.90;;;;;;5035003;28;20033;-74
2023/04/13 11:08:21;;;;;;;1.33;0.30;;;8.10;99.90;;;;;;5032688;28;20037;-72
2023/04/13 11:10:52;;;;;;;1.38;0.25;;;8.20;99.90;;;;;;5025555;28;20025;-75
2023/04/13 11:13:18;;;;;;;0.47;0.20;;;8.20;99.90;;;;;;5039767;28;20116;-74
2023/04/13 11:15:44;;;;;;;3.97;1.23;;;8.20;99.90;;;;;;5028333;28;20375;-74
2023/04/13 11:18:10;;;;;;;1.75;1.15;;;8.40;99.90;;;;;;5027941;28;20037;-76
2023/04/13 11:20:38;;;;;;;2.17;0.70;;;7.90;99.90;;;;;;5023562;28;20040;-73
2023/04/13 11:23:05;;;;;;;0.80;0.30;;;7.80;99.90;;;;;;5033999;28;20032;-74
2023/04/13 11:25:35;;;;;;;0.55;0.10;;;7.60;99.90;;;;;;5034098;28;20029;-77
2023/04/13 11:28:02;;;;;;;4.72;2.38;;;7.70;99.90;;;;;;5038064;28;20032;-73
2023/04/13 11:30:29;;;;;;;1.20;0.60;;;7.90;99.90;;;;;;5028593;28;20144;-73
2023/04/13 11:32:58;;;;;;;1.60;0.22;;;7.90;99.90;;;;;;5025223;28;20060;-73
2023/04/13 11:35:25;;;;;;;3.03;1.52;;;7.80;99.90;;;;;;5025898;28;20060;-73
2023/04/13 11:37:53;;;;;;;0.75;0.45;;;8.00;99.90;;;;;;5036697;28;20073;-74
2023/04/13 11:40:24;;;;;;;3.47;1.95;;;7.90;99.90;;;;;;5027802;28;20112;-73
2023/04/13 11:42:55;;;;;;;3.03;1.83;;;7.90;99.90;;;;;;5031404;28;20116;-72
2023/04/13 11:45:24;;;;;;;0.45;0.28;;;7.70;99.90;;;;;;5037619;28;20087;-73
2023/04/13 11:47:51;;;;;;;0.95;0.63;;;7.50;99.90;;;;;;5037369;28;20046;-72
2023/04/13 11:50:18;;;;;;;3.33;2.10;;;7.70;99.90;;;;;;5042651;28;20245;-72
2023/04/13 11:52:48;;;;;;;4.22;2.90;;;7.80;99.90;;;;;;5036297;28;20037;-72
2023/04/13 11:55:14;;;;;;;2.05;0.50;;;7.80;99.90;;;;;;5031447;28;20363;-72
2023/04/13 11:57:41;;;;;;;1.23;0.50;;;7.30;99.90;;;;;;5031309;28;20035;-73
2023/04/13 12:00:24;;;;;;;0.20;0.10;;;7.40;99.90;;;;;;5031823;28;20030;-72
2023/04/13 12:02:55;;;;;;;0.03;0.00;;;7.40;99.90;;;;;;5033459;28;20366;-72
2023/04/13 12:05:24;;;;;;;0.43;0.20;;;7.60;99.90;;;;;;5024258;28;20033;-73
2023/04/13 12:07:52;;;;;;;0.15;0.10;;;7.30;99.90;;;;;;5029679;28;20029;-72
2023/04/13 12:10:30;;;;;;;1.23;0.20;;;7.30;99.90;;;;;;5026857;28;20032;-72
2023/04/13 12:12:59;;;;;;;0.38;0.10;;;7.00;99.90;;;;;;5026861;28;20033;-72
2023/04/13 12:15:28;;;;;;;2.75;1.58;;;6.90;99.90;;;;;;5027649;28;20029;-71
2023/04/13 12:17:56;;;;;;;3.08;2.20;;;7.30;99.90;;;;;;5031100;28;20540;-71
2023/04/13 12:20:22;;;;;;;1.65;0.95;;;7.30;99.90;;;;;;5037677;28;20029;-72
2023/04/13 12:22:48;;;;;;;2.33;1.48;;;7.30;99.90;;;;;;5037923;28;20112;-72
2023/04/13 12:25:21;;;;;;;0.50;0.40;;;7.20;99.90;;;;;;5023609;28;20482;-72
2023/04/13 12:27:51;;;;;;;0.13;0.10;;;7.30;99.90;;;;;;5027899;28;20470;-73
2023/04/13 12:30:19;;;;;;;0.90;0.50;;;7.20;99.90;;;;;;5025834;28;20523;-73
2023/04/13 12:32:46;;;;;;;2.05;0.93;;;7.20;99.90;;;;;;5032770;28;20068;-72
2023/04/13 12:35:13;;;;;;;8.00;4.70;;;7.30;99.90;;;;;;5030579;28;20416;-73
2023/04/13 12:37:42;;;;;;;3.53;1.52;;;7.50;99.90;;;;;;5034451;28;20026;-75
2023/04/13 12:40:18;;;;;;;1.60;0.88;;;7.50;99.90;;;;;;5031157;28;20026;-74
2023/04/13 12:42:47;;;;;;;0.20;0.10;;;6.90;99.90;;;;;;5042811;28;20474;-72
2023/04/13 12:45:15;;;;;;;0.28;0.00;;;7.00;99.90;;;;;;5038047;28;20113;-74
2023/04/13 12:47:40;;;;;;;0.10;0.10;;;7.20;99.90;;;;;;5042974;28;20120;-73